createdAt,value
2023-01-07T00:00:38.871Z,99644.28
2023-01-07T00:01:44.980Z,99644.78
2023-01-07T00:02:53.155Z,99645.81
2023-01-07T00:04:00.873Z,99655.41
2023-01-07T00:05:04.872Z,99650.94
2023-01-07T00:06:21.054Z,99655.09
2023-01-07T00:07:25.039Z,99653.31
2023-01-07T00:08:36.326Z,99657.50
2023-01-07T00:09:40.613Z,99654.66
2023-01-07T00:10:44.551Z,99658.25
2023-01-07T00:11:48.395Z,99654.00
2023-01-07T00:12:52.283Z,99657.59
2023-01-07T00:13:58.970Z,99659.31
2023-01-07T00:15:03.263Z,99652.09
2023-01-07T00:16:14.893Z,99657.31
2023-01-07T00:17:18.719Z,99654.00
2023-01-07T00:18:22.313Z,99665.34
2023-01-07T00:19:26.001Z,99656.66
2023-01-07T00:20:29.804Z,99657.59
2023-01-07T00:21:34.133Z,99660.25
2023-01-07T00:22:37.678Z,99663.75
2023-01-07T00:23:43.493Z,99669.72
2023-01-07T00:24:47.207Z,99667.00
2023-01-07T00:25:52.572Z,99668.69
2023-01-07T00:26:56.313Z,99660.06
2023-01-07T00:28:00.056Z,99668.69
2023-01-07T00:29:08.580Z,99667.84
2023-01-07T00:30:13.642Z,99665.94
2023-01-07T00:31:27.414Z,99670.31
2023-01-07T00:32:49.743Z,99664.16
2023-01-07T00:33:54.358Z,99666.72
2023-01-07T00:34:58.086Z,99665.25
2023-01-07T00:36:10.355Z,99669.44
2023-01-07T00:37:32.848Z,99672.19
2023-01-07T00:38:38.725Z,99676.47
2023-01-07T00:39:42.811Z,99670.41
2023-01-07T00:40:46.685Z,99669.56
2023-01-07T00:42:10.254Z,99674.09
2023-01-07T00:43:14.244Z,99680.16
2023-01-07T00:44:18.796Z,99671.44
2023-01-07T00:45:24.659Z,99669.56
2023-01-07T00:46:28.367Z,99680.91
2023-01-07T00:47:32.350Z,99674.66
2023-01-07T00:48:36.334Z,99673.81
2023-01-07T00:49:41.840Z,99679.31
2023-01-07T00:50:49.033Z,99681.66
2023-01-07T00:51:53.132Z,99679.81
2023-01-07T00:52:57.746Z,99677.06
2023-01-07T00:54:01.528Z,99683.00
2023-01-07T00:55:11.206Z,99684.66
2023-01-07T00:56:16.789Z,99680.47
2023-01-07T00:57:20.494Z,99685.75
2023-01-07T00:58:27.027Z,99687.47
2023-01-07T00:59:32.059Z,99684.91
2023-01-07T01:00:36.412Z,99687.41
2023-01-07T01:01:40.541Z,99681.22
2023-01-07T01:02:45.879Z,99690.06
2023-01-07T01:03:50.325Z,99689.09
2023-01-07T01:04:54.650Z,99695.16
2023-01-07T01:06:14.468Z,99691.56
2023-01-07T01:07:18.433Z,99695.81
2023-01-07T01:08:24.174Z,99696.88
2023-01-07T01:09:28.077Z,99695.16
2023-01-07T01:10:32.757Z,99694.97
2023-01-07T01:11:42.001Z,99693.25
2023-01-07T01:12:47.731Z,99695.06
2023-01-07T01:13:51.431Z,99700.28
2023-01-07T01:14:55.480Z,99698.41
2023-01-07T01:15:59.831Z,99700.09
2023-01-07T01:17:03.675Z,99705.41
2023-01-07T01:18:09.940Z,99710.88
2023-01-07T01:19:13.631Z,99702.75
2023-01-07T01:20:18.271Z,99706.16
2023-01-07T01:21:22.119Z,99708.91
2023-01-07T01:22:25.812Z,99705.41
2023-01-07T01:23:29.501Z,99707.28
2023-01-07T01:24:33.143Z,99700.97
2023-01-07T01:25:36.791Z,99705.41
2023-01-07T01:26:40.608Z,99703.50
2023-01-07T01:27:44.343Z,99703.03
2023-01-07T01:28:47.998Z,99701.22
2023-01-07T01:29:51.691Z,99702.16
2023-01-07T01:30:56.531Z,99695.75
2023-01-07T01:32:01.288Z,99692.91
2023-01-07T01:33:12.777Z,99691.31
2023-01-07T01:34:16.677Z,99693.97
2023-01-07T01:35:20.845Z,99695.66
2023-01-07T01:36:25.799Z,99697.34
2023-01-07T01:37:29.781Z,99692.91
2023-01-07T01:38:33.942Z,99701.72
2023-01-07T01:39:38.213Z,99706.91
2023-01-07T01:40:44.878Z,99705.13
2023-01-07T01:41:48.978Z,99706.91
2023-01-07T01:42:53.168Z,99713.00
2023-01-07T01:43:57.625Z,99711.28
2023-01-07T01:45:02.646Z,99714.81
2023-01-07T01:46:17.050Z,99706.91
2023-01-07T01:47:29.760Z,99705.13
2023-01-07T01:48:38.746Z,99705.13
2023-01-07T01:49:56.633Z,99704.47
2023-01-07T01:51:02.198Z,99707.03
2023-01-07T01:52:21.914Z,99706.91
2023-01-07T01:53:35.917Z,99712.16
2023-01-07T01:54:50.894Z,99712.16
2023-01-07T01:56:09.387Z,99715.66
2023-01-07T01:57:15.914Z,99714.03
2023-01-07T01:58:28.774Z,99713.47
2023-01-07T01:59:43.273Z,99714.13
2023-01-07T02:00:47.723Z,99707.97
2023-01-07T02:01:51.770Z,99711.47
2023-01-07T02:02:59.154Z,99715.81
2023-01-07T02:04:12.247Z,99709.94
2023-01-07T02:05:17.334Z,99711.56
2023-01-07T02:06:26.669Z,99708.81
2023-01-07T02:07:30.820Z,99715.91
2023-01-07T02:08:37.690Z,99709.56
2023-01-07T02:09:41.806Z,99712.22
2023-01-07T02:10:45.827Z,99714.31
2023-01-07T02:12:01.605Z,99714.13
2023-01-07T02:13:25.745Z,99708.91
2023-01-07T02:14:44.638Z,99716.69
2023-01-07T02:16:27.842Z,99718.38
2023-01-07T02:18:29.029Z,99713.38
2023-01-07T02:20:09.525Z,99718.75
2023-01-07T02:21:38.939Z,99721.47
2023-01-07T02:23:33.805Z,99720.63
2023-01-07T02:25:42.309Z,99712.19
2023-01-07T02:27:15.607Z,99721.88
2023-01-07T02:28:52.467Z,99719.28
2023-01-07T02:30:32.601Z,99721.44
2023-01-07T02:32:33.921Z,99725.13
2023-01-07T02:34:22.093Z,99736.06
2023-01-07T02:35:58.770Z,99726.22
2023-01-07T02:37:27.348Z,99728.03
2023-01-07T02:39:14.012Z,99731.81
2023-01-07T02:40:44.926Z,99740.50
2023-01-07T02:42:10.713Z,99735.31
2023-01-07T02:43:50.942Z,99739.56
2023-01-07T02:45:13.347Z,99736.91
2023-01-07T02:46:46.425Z,99736.06
2023-01-07T02:48:00.019Z,99736.16
2023-01-07T02:49:15.648Z,99733.50
2023-01-07T02:50:19.839Z,99733.69
2023-01-07T02:51:37.581Z,99741.38
2023-01-07T02:52:51.462Z,99735.06
2023-01-07T02:53:55.440Z,99734.19
2023-01-07T02:55:15.477Z,99733.25
2023-01-07T02:56:42.818Z,99735.81
2023-01-07T02:58:24.787Z,99738.56
2023-01-07T02:59:49.708Z,99738.47
2023-01-07T03:01:43.799Z,99747.28
2023-01-07T03:03:03.022Z,99742.81
2023-01-07T03:04:49.026Z,99734.19
2023-01-07T03:06:21.787Z,99732.31
2023-01-07T03:07:53.326Z,99736.16
2023-01-07T03:09:15.672Z,99729.91
2023-01-07T03:10:48.510Z,99728.97
2023-01-07T03:12:29.556Z,99738.06
2023-01-07T03:13:42.959Z,99744.13
2023-01-07T03:14:58.207Z,99740.63
2023-01-07T03:16:39.297Z,99739.66
2023-01-07T03:18:07.155Z,99739.66
2023-01-07T03:19:26.070Z,99745.81
2023-01-07T03:20:33.839Z,99738.13
2023-01-07T03:21:39.025Z,99746.00
2023-01-07T03:22:45.678Z,99733.09
2023-01-07T03:23:56.767Z,99735.75
2023-01-07T03:25:02.737Z,99735.56
2023-01-07T03:26:11.829Z,99732.25
2023-01-07T03:27:20.158Z,99734.81
2023-01-07T03:28:32.612Z,99734.81
2023-01-07T03:29:37.069Z,99736.50
2023-01-07T03:30:40.856Z,99736.41
2023-01-07T03:32:01.840Z,99725.81
2023-01-07T03:33:42.938Z,99732.91
2023-01-07T03:34:47.928Z,99738.22
2023-01-07T03:35:56.306Z,99732.91
2023-01-07T03:37:13.374Z,99734.63
2023-01-07T03:38:22.462Z,99739.91
2023-01-07T03:39:30.574Z,99739.06
2023-01-07T03:40:36.010Z,99734.72
2023-01-07T03:41:59.384Z,99732.16
2023-01-07T03:43:04.572Z,99739.25
2023-01-07T03:44:10.998Z,99735.75
2023-01-07T03:45:21.775Z,99734.09
2023-01-07T03:46:25.602Z,99722.66
2023-01-07T03:47:30.366Z,99730.53
2023-01-07T03:48:33.960Z,99735.84
2023-01-07T03:49:38.667Z,99730.59
2023-01-07T03:50:42.987Z,99731.44
2023-01-07T03:51:46.829Z,99729.69
2023-01-07T03:52:53.803Z,99734.03
2023-01-07T03:53:57.824Z,99732.34
2023-01-07T03:55:02.168Z,99731.41
2023-01-07T03:56:14.748Z,99730.53
2023-01-07T03:57:18.990Z,99728.75
2023-01-07T03:58:23.119Z,99732.34
2023-01-07T03:59:27.898Z,99731.44
2023-01-07T04:00:31.783Z,99735.06
2023-01-07T04:01:36.932Z,99736.09
2023-01-07T04:02:41.931Z,99729.09
2023-01-07T04:03:45.665Z,99730.03
2023-01-07T04:04:49.853Z,99731.75
2023-01-07T04:05:53.715Z,99732.84
2023-01-07T04:06:57.853Z,99729.34
2023-01-07T04:08:01.831Z,99725.84
2023-01-07T04:09:06.363Z,99726.88
2023-01-07T04:10:12.489Z,99727.88
2023-01-07T04:11:16.438Z,99730.53
2023-01-07T04:12:21.343Z,99729.75
2023-01-07T04:13:25.736Z,99721.91
2023-01-07T04:14:29.312Z,99732.50
2023-01-07T04:15:33.296Z,99730.03
2023-01-07T04:16:38.043Z,99737.09
2023-01-07T04:17:42.150Z,99734.56
2023-01-07T04:18:45.916Z,99737.09
2023-01-07T04:19:49.948Z,99736.25
2023-01-07T04:20:53.711Z,99740.88
2023-01-07T04:21:57.855Z,99745.41
2023-01-07T04:23:01.845Z,99733.09
2023-01-07T04:24:10.672Z,99738.56
2023-01-07T04:25:14.801Z,99738.66
2023-01-07T04:26:19.129Z,99739.50
2023-01-07T04:27:23.017Z,99736.78
2023-01-07T04:28:27.349Z,99735.91
2023-01-07T04:29:31.591Z,99733.38
2023-01-07T04:30:35.691Z,99737.81
2023-01-07T04:31:39.728Z,99752.66
2023-01-07T04:32:43.717Z,99737.72
2023-01-07T04:33:47.765Z,99739.50
2023-01-07T04:34:52.056Z,99742.25
2023-01-07T04:35:58.120Z,99736.97
2023-01-07T04:37:02.307Z,99740.47
2023-01-07T04:38:09.355Z,99734.31
2023-01-07T04:39:13.179Z,99740.56
2023-01-07T04:40:17.775Z,99742.34
2023-01-07T04:41:21.420Z,99744.09
2023-01-07T04:42:26.306Z,99733.69
2023-01-07T04:43:29.933Z,99736.44
2023-01-07T04:44:33.976Z,99735.59
2023-01-07T04:45:37.620Z,99735.72
2023-01-07T04:46:41.719Z,99740.34
2023-01-07T04:47:45.564Z,99744.00
2023-01-07T04:48:49.671Z,99741.44
2023-01-07T04:49:53.389Z,99742.56
2023-01-07T04:50:57.334Z,99736.66
2023-01-07T04:52:00.952Z,99739.50
2023-01-07T04:53:05.025Z,99737.84
2023-01-07T04:54:12.621Z,99746.81
2023-01-07T04:55:16.891Z,99750.41
2023-01-07T04:56:20.633Z,99747.84
2023-01-07T04:57:24.774Z,99745.25
2023-01-07T04:58:28.687Z,99747.13
2023-01-07T04:59:32.893Z,99746.38
2023-01-07T05:00:37.471Z,99749.00
2023-01-07T05:01:41.141Z,99741.22
2023-01-07T05:02:45.081Z,99757.38
2023-01-07T05:03:48.842Z,99753.06
2023-01-07T05:04:52.653Z,99756.81
2023-01-07T05:05:56.378Z,99750.75
2023-01-07T05:07:00.007Z,99758.69
2023-01-07T05:08:03.869Z,99756.91
2023-01-07T05:09:14.395Z,99764.75
2023-01-07T05:10:18.908Z,99760.31
2023-01-07T05:11:22.854Z,99760.25
2023-01-07T05:12:27.028Z,99761.09
2023-01-07T05:13:31.987Z,99763.81
2023-01-07T05:14:36.432Z,99769.03
2023-01-07T05:15:40.222Z,99759.38
2023-01-07T05:16:47.507Z,99765.53
2023-01-07T05:17:51.332Z,99762.97
2023-01-07T05:18:55.324Z,99767.41
2023-01-07T05:19:58.956Z,99762.13
2023-01-07T05:21:02.747Z,99762.13
2023-01-07T05:22:12.993Z,99763.13
2023-01-07T05:23:16.963Z,99761.41
2023-01-07T05:24:20.546Z,99755.44
2023-01-07T05:25:24.580Z,99769.59
2023-01-07T05:26:28.800Z,99756.44
2023-01-07T05:27:32.513Z,99766.16
2023-01-07T05:28:36.698Z,99772.41
2023-01-07T05:29:40.553Z,99765.41
2023-01-07T05:30:46.539Z,99766.34
2023-01-07T05:31:51.048Z,99768.97
2023-01-07T05:32:55.079Z,99766.41
2023-01-07T05:33:58.980Z,99764.72
2023-01-07T05:35:02.831Z,99759.47
2023-01-07T05:36:11.478Z,99760.41
2023-01-07T05:37:15.223Z,99765.78
2023-01-07T05:38:25.345Z,99759.69
2023-01-07T05:39:29.323Z,99762.44
2023-01-07T05:40:33.235Z,99765.94
2023-01-07T05:41:36.703Z,99765.13
2023-01-07T05:42:41.105Z,99762.56
2023-01-07T05:43:44.798Z,99767.94
2023-01-07T05:44:48.379Z,99769.75
2023-01-07T05:45:52.205Z,99768.03
2023-01-07T05:47:00.185Z,99767.22
2023-01-07T05:48:04.136Z,99771.66
2023-01-07T05:49:09.448Z,99768.16
2023-01-07T05:50:13.741Z,99770.81
2023-01-07T05:51:18.350Z,99772.69
2023-01-07T05:52:22.026Z,99777.97
2023-01-07T05:53:26.588Z,99784.22
2023-01-07T05:54:30.297Z,99777.22
2023-01-07T05:55:36.443Z,99773.78
2023-01-07T05:56:40.069Z,99778.16
2023-01-07T05:57:44.023Z,99781.69
2023-01-07T05:58:47.923Z,99785.28
2023-01-07T05:59:51.787Z,99781.88
2023-01-07T06:00:56.300Z,99780.06
2023-01-07T06:02:02.262Z,99785.44
2023-01-07T06:03:08.483Z,99782.88
2023-01-07T06:04:12.441Z,99778.59
2023-01-07T06:05:16.750Z,99787.38
2023-01-07T06:06:20.315Z,99785.75
2023-01-07T06:07:24.356Z,99786.69
2023-01-07T06:08:28.286Z,99784.19
2023-01-07T06:09:32.325Z,99780.69
2023-01-07T06:10:37.408Z,99785.13
2023-01-07T06:11:41.366Z,99779.06
2023-01-07T06:12:44.939Z,99780.94
2023-01-07T06:13:48.554Z,99781.78
2023-01-07T06:14:52.185Z,99782.72
2023-01-07T06:16:06.318Z,99781.06
2023-01-07T06:17:11.035Z,99789.16
2023-01-07T06:18:14.746Z,99783.25
2023-01-07T06:19:20.196Z,99785.88
2023-01-07T06:20:24.925Z,99795.69
2023-01-07T06:21:28.839Z,99794.91
2023-01-07T06:22:32.471Z,99794.09
2023-01-07T06:23:37.301Z,99794.28
2023-01-07T06:24:41.323Z,99804.84
2023-01-07T06:25:47.101Z,99800.56
2023-01-07T06:26:51.137Z,99789.28
2023-01-07T06:27:58.302Z,99801.63
2023-01-07T06:29:02.068Z,99798.13
2023-01-07T06:30:09.445Z,99800.00
2023-01-07T06:31:13.297Z,99800.06
2023-01-07T06:32:17.081Z,99802.69
2023-01-07T06:33:20.937Z,99803.78
2023-01-07T06:34:24.580Z,99809.94
2023-01-07T06:35:28.572Z,99803.78
2023-01-07T06:36:32.482Z,99810.13
2023-01-07T06:37:36.090Z,99803.16
2023-01-07T06:38:41.753Z,99798.16
2023-01-07T06:39:45.331Z,99808.88
2023-01-07T06:40:48.979Z,99806.41
2023-01-07T06:41:52.625Z,99801.16
2023-01-07T06:42:56.928Z,99812.66
2023-01-07T06:44:00.838Z,99811.72
2023-01-07T06:45:05.548Z,99814.53
2023-01-07T06:46:12.559Z,99805.75
2023-01-07T06:47:16.989Z,99807.53
2023-01-07T06:48:21.325Z,99805.94
2023-01-07T06:49:25.313Z,99803.38
2023-01-07T06:50:29.463Z,99804.09
2023-01-07T06:51:34.460Z,99817.25
2023-01-07T06:52:38.274Z,99814.59
2023-01-07T06:53:45.110Z,99805.75
2023-01-07T06:54:49.284Z,99801.31
2023-01-07T06:55:53.068Z,99811.81
2023-01-07T06:56:56.605Z,99800.31
2023-01-07T06:58:00.606Z,99802.88
2023-01-07T06:59:04.622Z,99806.31
2023-01-07T07:00:12.724Z,99811.34
2023-01-07T07:01:16.828Z,99810.50
2023-01-07T07:02:27.206Z,99805.09
2023-01-07T07:03:31.251Z,99800.59
2023-01-07T07:04:35.118Z,99804.81
2023-01-07T07:05:39.649Z,99799.44
2023-01-07T07:06:43.286Z,99804.56
2023-01-07T07:07:47.042Z,99814.28
2023-01-07T07:08:50.891Z,99805.28
2023-01-07T07:09:54.690Z,99800.00
2023-01-07T07:10:58.275Z,99794.72
2023-01-07T07:12:02.120Z,99790.13
2023-01-07T07:13:07.148Z,99795.34
2023-01-07T07:14:11.661Z,99802.28
2023-01-07T07:15:17.249Z,99804.84
2023-01-07T07:16:22.757Z,99798.53
2023-01-07T07:17:26.511Z,99806.41
2023-01-07T07:18:30.943Z,99800.19
2023-01-07T07:19:34.682Z,99804.38
2023-01-07T07:20:38.325Z,99804.28
2023-01-07T07:21:43.350Z,99805.97
2023-01-07T07:22:49.208Z,99804.84
2023-01-07T07:23:52.888Z,99802.09
2023-01-07T07:24:56.675Z,99811.00
2023-01-07T07:26:00.323Z,99801.16
2023-01-07T07:27:04.058Z,99807.94
2023-01-07T07:28:12.411Z,99801.16
2023-01-07T07:29:16.720Z,99802.09
2023-01-07T07:30:21.564Z,99810.38
2023-01-07T07:31:45.308Z,99813.81
2023-01-07T07:32:48.910Z,99813.34
2023-01-07T07:33:52.817Z,99814.19
2023-01-07T07:34:57.525Z,99815.78
2023-01-07T07:36:01.317Z,99809.38
2023-01-07T07:37:13.591Z,99812.34
2023-01-07T07:38:19.239Z,99816.53
2023-01-07T07:39:23.204Z,99805.75
2023-01-07T07:40:27.760Z,99807.28
2023-01-07T07:41:31.658Z,99817.72
2023-01-07T07:43:11.849Z,99808.78
2023-01-07T07:43:59.222Z,99808.78
2023-01-07T07:45:03.108Z,99811.13
2023-01-07T07:46:10.357Z,99812.69
2023-01-07T07:47:14.969Z,99813.41
2023-01-07T07:48:19.161Z,99811.53
2023-01-07T07:49:24.033Z,99811.41
2023-01-07T07:50:27.996Z,99812.38
2023-01-07T07:51:32.397Z,99813.00
2023-01-07T07:52:36.452Z,99815.56
2023-01-07T07:53:39.942Z,99812.88
2023-01-07T07:54:43.732Z,99814.59
2023-01-07T07:55:48.122Z,99815.19
2023-01-07T07:56:51.971Z,99809.75
2023-01-07T07:57:58.491Z,99815.50
2023-01-07T07:59:08.729Z,99817.91
2023-01-07T08:00:13.653Z,99817.84
2023-01-07T08:01:17.329Z,99816.81
2023-01-07T08:02:21.828Z,99820.22
2023-01-07T08:03:27.177Z,99822.63
2023-01-07T08:04:34.320Z,99818.91
2023-01-07T08:05:44.214Z,99816.84
2023-01-07T08:06:48.346Z,99814.81
2023-01-07T08:07:52.068Z,99814.81
2023-01-07T08:08:55.869Z,99811.16
2023-01-07T08:09:59.899Z,99808.16
2023-01-07T08:11:04.485Z,99806.13
2023-01-07T08:12:15.222Z,99809.47
2023-01-07T08:13:24.292Z,99803.94
2023-01-07T08:14:28.559Z,99805.50
2023-01-07T08:15:32.373Z,99807.88
2023-01-07T08:16:36.406Z,99803.19
2023-01-07T08:17:40.256Z,99805.59
2023-01-07T08:18:44.234Z,99809.75
2023-01-07T08:19:47.741Z,99808.66
2023-01-07T08:20:51.670Z,99796.28
2023-01-07T08:21:55.755Z,99800.53
2023-01-07T08:23:02.017Z,99800.19
2023-01-07T08:24:09.901Z,99801.47
2023-01-07T08:25:14.009Z,99802.25
2023-01-07T08:26:18.198Z,99804.47
2023-01-07T08:27:22.016Z,99791.13
2023-01-07T08:28:26.843Z,99795.56
2023-01-07T08:29:30.994Z,99797.13
2023-01-07T08:30:35.150Z,99796.19
2023-01-07T08:31:39.080Z,99799.53
2023-01-07T08:32:43.229Z,99795.06
2023-01-07T08:33:47.063Z,99805.50
2023-01-07T08:34:50.804Z,99796.78
2023-01-07T08:35:54.720Z,99796.59
2023-01-07T08:36:58.667Z,99801.03
2023-01-07T08:38:10.633Z,99794.66
2023-01-07T08:39:14.704Z,99802.19
2023-01-07T08:40:18.844Z,99806.34
2023-01-07T08:41:24.492Z,99811.41
2023-01-07T08:42:29.724Z,99810.13
2023-01-07T08:43:33.772Z,99802.59
2023-01-07T08:44:37.555Z,99806.16
2023-01-07T08:45:41.612Z,99812.00
2023-01-07T08:46:45.517Z,99810.03
2023-01-07T08:47:49.072Z,99808.06
2023-01-07T08:48:52.690Z,99808.66
2023-01-07T08:49:57.361Z,99792.75
2023-01-07T08:51:01.957Z,99809.69
2023-01-07T08:52:10.254Z,99804.41
2023-01-07T08:53:14.017Z,99802.50
2023-01-07T08:54:18.172Z,99809.34
2023-01-07T08:55:23.033Z,99802.69
2023-01-07T08:56:26.915Z,99805.91
2023-01-07T08:57:31.766Z,99802.59
2023-01-07T08:58:36.835Z,99812.41
2023-01-07T08:59:41.071Z,99814.06
2023-01-07T09:00:45.631Z,99805.91
2023-01-07T09:01:49.997Z,99810.28
2023-01-07T09:02:54.480Z,99811.13
2023-01-07T09:03:58.681Z,99815.22
2023-01-07T09:05:02.658Z,99816.88
2023-01-07T09:06:09.001Z,99819.34
2023-01-07T09:07:13.153Z,99816.09
2023-01-07T09:08:17.069Z,99813.34
2023-01-07T09:09:22.111Z,99815.97
2023-01-07T09:10:26.285Z,99814.13
2023-01-07T09:11:30.004Z,99807.19
2023-01-07T09:12:33.931Z,99818.63
2023-01-07T09:13:37.482Z,99815.72
2023-01-07T09:14:41.536Z,99811.38
2023-01-07T09:15:45.931Z,99806.84
2023-01-07T09:16:49.470Z,99804.69
2023-01-07T09:17:53.162Z,99813.41
2023-01-07T09:18:56.762Z,99799.44
2023-01-07T09:20:03.756Z,99798.97
2023-01-07T09:21:10.072Z,99805.66
2023-01-07T09:22:13.670Z,99800.22
2023-01-07T09:23:18.562Z,99812.25
2023-01-07T09:24:22.185Z,99806.41
2023-01-07T09:25:25.924Z,99797.25
2023-01-07T09:26:29.903Z,99799.84
2023-01-07T09:27:34.308Z,99800.84
2023-01-07T09:28:39.617Z,99803.34
2023-01-07T09:29:43.264Z,99803.78
2023-01-07T09:30:47.585Z,99803.16
2023-01-07T09:31:51.775Z,99804.47
2023-01-07T09:32:57.866Z,99798.91
2023-01-07T09:34:05.304Z,99798.59
2023-01-07T09:35:11.041Z,99799.88
2023-01-07T09:36:15.804Z,99805.75
2023-01-07T09:37:21.058Z,99803.41
2023-01-07T09:38:25.355Z,99803.28
2023-01-07T09:39:29.758Z,99796.13
2023-01-07T09:40:42.877Z,99803.59
2023-01-07T09:42:09.814Z,99799.75
2023-01-07T09:43:23.266Z,99805.09
2023-01-07T09:45:10.657Z,99799.22
2023-01-07T09:46:17.642Z,99799.66
2023-01-07T09:47:27.081Z,99801.59
2023-01-07T09:48:44.458Z,99807.53
2023-01-07T09:49:56.858Z,99805.06
2023-01-07T09:51:30.805Z,99804.63
2023-01-07T09:52:44.733Z,99809.78
2023-01-07T09:53:55.151Z,99803.28
2023-01-07T09:55:21.173Z,99805.00
2023-01-07T09:56:34.437Z,99798.25
2023-01-07T09:57:38.298Z,99793.78
2023-01-07T09:58:46.651Z,99801.91
2023-01-07T09:59:50.417Z,99794.88
2023-01-07T10:01:34.193Z,99798.56
2023-01-07T10:02:56.708Z,99803.06
2023-01-07T10:04:22.965Z,99795.91
2023-01-07T10:05:51.739Z,99801.03
2023-01-07T10:07:16.153Z,99792.06
2023-01-07T10:08:33.038Z,99799.06
2023-01-07T10:09:45.435Z,99796.72
2023-01-07T10:11:06.524Z,99787.09
2023-01-07T10:12:33.900Z,99783.81
2023-01-07T10:14:14.911Z,99781.34
2023-01-07T10:15:34.679Z,99782.75
2023-01-07T10:17:19.746Z,99774.97
2023-01-07T10:18:50.413Z,99767.69
2023-01-07T10:20:05.264Z,99770.97
2023-01-07T10:21:39.255Z,99766.47
2023-01-07T10:23:04.981Z,99775.66
2023-01-07T10:24:27.750Z,99777.16
2023-01-07T10:25:45.975Z,99766.22
2023-01-07T10:26:56.541Z,99760.06
2023-01-07T10:28:10.052Z,99765.94
2023-01-07T10:29:30.833Z,99759.78
2023-01-07T10:30:44.048Z,99754.53
2023-01-07T10:31:51.862Z,99755.31
2023-01-07T10:33:28.804Z,99749.31
2023-01-07T10:34:46.261Z,99747.88
2023-01-07T10:36:06.660Z,99746.28
2023-01-07T10:37:32.576Z,99745.31
2023-01-07T10:38:42.920Z,99747.69
2023-01-07T10:40:12.409Z,99747.56
2023-01-07T10:42:13.721Z,99741.19
2023-01-07T10:43:53.770Z,99740.19
2023-01-07T10:45:36.204Z,99736.47
2023-01-07T10:46:53.012Z,99739.34
2023-01-07T10:48:38.849Z,99733.44
2023-01-07T10:50:13.607Z,99733.81
2023-01-07T10:51:44.434Z,99739.88
2023-01-07T10:53:24.045Z,99743.22
2023-01-07T10:54:50.822Z,99738.63
2023-01-07T10:56:22.002Z,99737.78
2023-01-07T10:57:31.464Z,99740.25
2023-01-07T10:58:43.933Z,99733.81
2023-01-07T11:00:06.118Z,99732.47
2023-01-07T11:01:24.829Z,99733.16
2023-01-07T11:02:30.907Z,99731.41
2023-01-07T11:03:37.876Z,99727.63
2023-01-07T11:04:41.942Z,99729.63
2023-01-07T11:05:56.161Z,99727.16
2023-01-07T11:07:09.137Z,99729.53
2023-01-07T11:08:39.350Z,99734.16
2023-01-07T11:09:47.600Z,99737.03
2023-01-07T11:10:52.250Z,99738.41
2023-01-07T11:12:01.280Z,99729.25
2023-01-07T11:13:20.539Z,99724.78
2023-01-07T11:14:31.837Z,99725.75
2023-01-07T11:16:10.366Z,99736.09
2023-01-07T11:17:49.097Z,99731.28
2023-01-07T11:19:11.115Z,99723.41
2023-01-07T11:20:45.181Z,99724.16
2023-01-07T11:21:50.586Z,99718.72
2023-01-07T11:22:54.864Z,99718.81
2023-01-07T11:23:58.658Z,99721.38
2023-01-07T11:25:28.249Z,99715.03
2023-01-07T11:26:32.847Z,99720.63
2023-01-07T11:27:37.635Z,99709.03
2023-01-07T11:29:09.786Z,99713.28
2023-01-07T11:30:31.077Z,99709.69
2023-01-07T11:31:56.196Z,99712.03
2023-01-07T11:33:07.088Z,99718.22
2023-01-07T11:34:34.769Z,99718.06
2023-01-07T11:35:44.788Z,99709.28
2023-01-07T11:36:48.428Z,99702.25
2023-01-07T11:37:52.454Z,99714.31
2023-01-07T11:39:36.686Z,99706.72
2023-01-07T11:40:40.258Z,99702.72
2023-01-07T11:42:37.786Z,99709.13
2023-01-07T11:43:51.051Z,99702.09
2023-01-07T11:45:26.918Z,99700.78
2023-01-07T11:46:31.715Z,99701.28
2023-01-07T11:47:39.761Z,99695.72
2023-01-07T11:49:04.344Z,99692.69
2023-01-07T11:50:21.897Z,99693.16
2023-01-07T11:51:25.927Z,99691.97
2023-01-07T11:52:30.059Z,99687.31
2023-01-07T11:53:43.720Z,99679.91
2023-01-07T11:54:52.509Z,99680.31
2023-01-07T11:56:00.611Z,99681.78
2023-01-07T11:57:33.891Z,99679.09
2023-01-07T11:58:45.135Z,99676.34
2023-01-07T12:00:11.860Z,99672.50
2023-01-07T12:01:18.286Z,99675.16
2023-01-07T12:02:27.551Z,99680.94
2023-01-07T12:03:31.964Z,99675.84
2023-01-07T12:04:37.532Z,99673.06
2023-01-07T12:05:45.342Z,99681.78
2023-01-07T12:06:54.237Z,99679.97
2023-01-07T12:07:59.249Z,99677.31
2023-01-07T12:09:28.751Z,99673.69
2023-01-07T12:10:39.466Z,99672.09
2023-01-07T12:11:45.880Z,99674.66
2023-01-07T12:12:49.752Z,99671.16
2023-01-07T12:13:53.652Z,99675.31
2023-01-07T12:15:01.494Z,99671.69
2023-01-07T12:16:11.090Z,99674.34
2023-01-07T12:17:22.007Z,99664.97
2023-01-07T12:18:31.808Z,99657.66
2023-01-07T12:20:03.826Z,99660.75
2023-01-07T12:22:08.662Z,99652.97
2023-01-07T12:23:52.012Z,99650.19
2023-01-07T12:25:10.235Z,99660.31
2023-01-07T12:26:25.982Z,99652.97
2023-01-07T12:27:52.157Z,99648.72
2023-01-07T12:29:36.580Z,99653.81
2023-01-07T12:31:41.199Z,99651.78
2023-01-07T12:33:24.322Z,99654.06
2023-01-07T12:34:54.678Z,99650.19
2023-01-07T12:36:12.218Z,99651.28
2023-01-07T12:37:42.200Z,99642.53
2023-01-07T12:38:58.210Z,99644.34
2023-01-07T12:40:13.728Z,99641.06
2023-01-07T12:41:25.871Z,99639.53
2023-01-07T12:42:38.133Z,99633.47
2023-01-07T12:44:03.048Z,99627.31
2023-01-07T12:45:29.681Z,99637.66
2023-01-07T12:46:47.391Z,99623.28
2023-01-07T12:48:02.620Z,99625.72
2023-01-07T12:49:26.096Z,99633.63
2023-01-07T12:50:48.757Z,99636.34
2023-01-07T12:52:06.413Z,99644.16
2023-01-07T12:53:40.568Z,99642.22
2023-01-07T12:55:32.100Z,99639.56
2023-01-07T12:57:00.550Z,99640.81
2023-01-07T12:58:16.956Z,99635.50
2023-01-07T12:59:46.781Z,99636.34
2023-01-07T13:01:06.995Z,99635.44
2023-01-07T13:02:45.479Z,99630.84
2023-01-07T13:04:24.002Z,99633.50
2023-01-07T13:06:05.672Z,99634.53
2023-01-07T13:07:36.086Z,99638.94
2023-01-07T13:08:58.344Z,99629.34
2023-01-07T13:10:15.801Z,99626.66
2023-01-07T13:12:41.216Z,99624.88
2023-01-07T13:13:47.595Z,99625.72
2023-01-07T13:14:58.864Z,99618.50
2023-01-07T13:16:03.249Z,99624.56
2023-01-07T13:17:25.090Z,99622.63
2023-01-07T13:18:30.266Z,99626.06
2023-01-07T13:19:33.851Z,99621.66
2023-01-07T13:21:09.938Z,99625.94
2023-01-07T13:22:41.763Z,99620.63
2023-01-07T13:24:54.847Z,99625.94
2023-01-07T13:26:26.191Z,99622.53
2023-01-07T13:28:26.501Z,99627.53
2023-01-07T13:30:09.365Z,99616.97
2023-01-07T13:31:49.352Z,99624.94
2023-01-07T13:33:08.016Z,99623.25
2023-01-07T13:34:33.921Z,99609.31
2023-01-07T13:36:16.322Z,99618.69
2023-01-07T13:37:41.676Z,99617.19
2023-01-07T13:39:03.803Z,99619.97
2023-01-07T13:40:51.103Z,99614.00
2023-01-07T13:42:21.115Z,99621.38
2023-01-07T13:43:25.687Z,99620.41
2023-01-07T13:45:32.462Z,99615.38
2023-01-07T13:46:43.057Z,99621.78
2023-01-07T13:47:56.228Z,99622.94
2023-01-07T13:49:01.059Z,99616.88
2023-01-07T13:50:05.874Z,99621.25
2023-01-07T13:51:13.541Z,99614.22
2023-01-07T13:52:24.749Z,99620.50
2023-01-07T13:53:45.987Z,99617.84
2023-01-07T13:54:50.733Z,99612.53
2023-01-07T13:56:20.316Z,99617.00
2023-01-07T13:57:24.813Z,99620.50
2023-01-07T13:58:31.886Z,99613.50
2023-01-07T13:59:49.516Z,99617.00
2023-01-07T14:01:28.924Z,99617.97